Time,TemperatureF,DewpointF,PressureIn,WindDirection,WindDirectionDegrees,WindSpeedMPH,WindSpeedGustMPH,Humidity,HourlyPrecipIn,Conditions,Clouds,dailyrainin,SoftwareType,DateUTC
2013-09-11 00:00:00,67.5,65.7,29.81,ESE,109,0.0,0.0,94,0.00,,,0.63,meteohub,2013-09-11 06:00:00,
2013-09-11 00:05:00,67.5,65.7,29.81,ESE,109,0.0,0.0,94,0.00,,,0.00,meteohub,2013-09-11 06:05:00,
2013-09-11 00:10:00,67.3,65.5,29.81,ESE,109,0.0,0.0,94,0.00,,,0.00,meteohub,2013-09-11 06:10:00,
2013-09-11 00:15:00,67.3,65.1,29.81,ESE,109,0.0,0.0,93,0.00,,,0.00,meteohub,2013-09-11 06:15:00,
2013-09-11 00:21:00,67.5,65.3,29.81,ESE,109,0.0,0.0,93,0.00,,,0.00,meteohub,2013-09-11 06:21:00,
2013-09-11 00:27:00,67.5,65.3,29.81,ESE,109,0.0,0.0,93,0.00,,,0.00,meteohub,2013-09-11 06:27:00,
2013-09-11 00:32:00,67.5,65.3,29.81,ESE,109,0.0,0.0,93,0.00,,,0.00,meteohub,2013-09-11 06:32:00,
2013-09-11 00:37:00,67.3,65.1,29.81,ESE,109,0.0,0.0,93,0.00,,,0.00,meteohub,2013-09-11 06:37:00,
2013-09-11 00:42:00,67.3,65.1,29.81,ESE,109,0.0,0.0,93,0.00,,,0.00,meteohub,2013-09-11 06:42:00,
2013-09-11 00:47:00,67.5,65.3,29.81,ESE,109,0.0,0.0,93,0.00,,,0.00,meteohub,2013-09-11 06:47:00,
2013-09-11 00:52:00,67.5,65.3,29.81,ESE,109,0.0,0.0,93,0.00,,,0.00,meteohub,2013-09-11 06:52:00,
2013-09-11 00:57:00,67.6,65.5,29.82,ESE,109,0.0,0.0,93,0.00,,,0.00,meteohub,2013-09-11 06:57:00,
2013-09-11 01:03:00,67.6,65.5,29.82,ESE,109,0.0,0.0,93,0.00,,,0.00,meteohub,2013-09-11 07:03:00,
2013-09-11 01:08:00,67.6,65.5,29.82,ESE,109,0.0,0.0,93,0.00,,,0.00,meteohub,2013-09-11 07:08:00,
2013-09-11 01:13:00,67.6,65.5,29.82,ESE,109,0.0,0.0,93,0.00,,,0.00,meteohub,2013-09-11 07:13:00,
2013-09-11 01:18:00,67.6,65.5,29.82,ESE,109,0.0,0.0,93,0.00,,,0.00,meteohub,2013-09-11 07:18:00,
2013-09-11 01:23:00,67.8,65.7,29.82,ESE,109,0.0,0.0,93,0.00,,,0.00,meteohub,2013-09-11 07:23:00,
2013-09-11 01:28:00,67.8,65.7,29.82,ESE,109,0.0,0.0,93,0.00,,,0.00,meteohub,2013-09-11 07:28:00,
2013-09-11 01:33:00,67.8,65.7,29.82,ESE,109,0.0,0.0,93,0.00,,,0.00,meteohub,2013-09-11 07:33:00,
2013-09-11 01:39:00,67.8,65.7,29.82,ESE,109,0.0,0.0,93,0.00,,,0.00,meteohub,2013-09-11 07:39:00,
2013-09-11 01:44:00,67.6,65.5,29.82,ESE,109,0.0,0.0,93,0.00,,,0.00,meteohub,2013-09-11 07:44:00,
2013-09-11 01:49:00,67.6,65.5,29.82,ESE,109,0.0,0.0,93,0.00,,,0.00,meteohub,2013-09-11 07:49:00,
2013-09-11 01:54:00,67.6,65.5,29.82,ESE,109,0.0,0.0,93,0.00,,,0.00,meteohub,2013-09-11 07:54:00,
2013-09-11 01:59:00,67.6,65.5,29.82,ESE,109,0.0,0.0,93,0.00,,,0.00,meteohub,2013-09-11 07:59:00,
2013-09-11 02:04:00,67.5,65.3,29.82,ESE,109,0.0,0.0,93,0.00,,,0.00,meteohub,2013-09-11 08:04:00,
2013-09-11 02:09:00,67.3,65.1,29.81,ESE,109,0.0,0.0,93,0.00,,,0.00,meteohub,2013-09-11 08:09:00,
2013-09-11 02:15:00,67.3,65.1,29.81,ESE,109,0.0,0.0,93,0.00,,,0.00,meteohub,2013-09-11 08:15:00,
2013-09-11 02:20:00,67.1,64.9,29.81,ESE,109,0.0,0.0,93,0.00,,,0.00,meteohub,2013-09-11 08:20:00,
2013-09-11 02:25:00,66.9,64.8,29.81,ESE,109,0.0,0.0,93,0.00,,,0.00,meteohub,2013-09-11 08:25:00,
2013-09-11 02:30:00,66.9,65.1,29.81,ESE,109,0.0,0.0,94,0.00,,,0.00,meteohub,2013-09-11 08:30:00,
2013-09-11 02:35:00,66.9,65.1,29.81,ESE,109,0.0,0.0,94,0.00,,,0.00,meteohub,2013-09-11 08:35:00,
2013-09-11 02:40:00,66.9,65.1,29.81,ESE,109,0.0,0.0,94,0.00,,,0.00,meteohub,2013-09-11 08:40:00,
2013-09-11 02:45:00,67.1,65.3,29.81,ESE,109,0.0,0.0,94,0.00,,,0.00,meteohub,2013-09-11 08:45:00,
2013-09-11 02:50:00,67.3,65.5,29.81,ESE,109,0.0,0.0,94,0.00,,,0.00,meteohub,2013-09-11 08:50:00,
2013-09-11 02:56:00,67.3,65.5,29.81,ESE,109,0.0,0.0,94,0.00,,,0.00,meteohub,2013-09-11 08:56:00,
2013-09-11 03:01:00,67.1,65.3,29.82,ESE,109,0.0,0.0,94,0.00,,,0.00,meteohub,2013-09-11 09:01:00,
2013-09-11 03:06:00,67.1,65.3,29.81,ESE,109,0.0,0.0,94,0.00,,,0.00,meteohub,2013-09-11 09:06:00,
2013-09-11 03:11:00,67.1,65.3,29.81,ESE,109,0.0,0.0,94,0.00,,,0.00,meteohub,2013-09-11 09:11:00,
2013-09-11 03:16:00,66.9,65.1,29.81,ESE,109,0.0,0.0,94,0.00,,,0.00,meteohub,2013-09-11 09:16:00,
2013-09-11 03:21:00,66.9,65.1,29.81,ESE,109,0.0,0.0,94,0.00,,,0.00,meteohub,2013-09-11 09:21:00,
2013-09-11 03:26:00,66.9,65.1,29.81,ESE,109,0.0,0.0,94,0.00,,,0.00,meteohub,2013-09-11 09:26:00,
2013-09-11 03:31:00,66.7,64.9,29.81,ESE,109,0.0,0.0,94,0.00,,,0.00,meteohub,2013-09-11 09:31:00,
2013-09-11 03:37:00,66.7,64.9,29.81,ESE,109,0.0,0.0,94,0.00,,,0.00,meteohub,2013-09-11 09:37:00,
2013-09-11 03:42:00,66.7,64.9,29.81,ESE,109,0.0,0.0,94,0.00,,,0.00,meteohub,2013-09-11 09:42:00,
2013-09-11 03:47:00,66.7,64.9,29.81,ESE,109,0.0,0.0,94,0.00,,,0.00,meteohub,2013-09-11 09:47:00,
2013-09-11 03:52:00,66.7,64.9,29.81,ESE,109,0.0,0.0,94,0.00,,,0.00,meteohub,2013-09-11 09:52:00,
2013-09-11 03:57:00,66.6,64.8,29.82,ESE,109,0.0,0.0,94,0.00,,,0.00,meteohub,2013-09-11 09:57:00,
2013-09-11 04:02:00,66.6,64.8,29.81,ESE,109,0.0,0.0,94,0.00,,,0.00,meteohub,2013-09-11 10:02:00,
2013-09-11 04:07:00,66.6,64.8,29.82,ESE,109,0.0,0.0,94,0.00,,,0.00,meteohub,2013-09-11 10:07:00,
2013-09-11 04:12:00,66.6,64.8,29.81,ESE,109,0.0,0.0,94,0.00,,,0.00,meteohub,2013-09-11 10:12:00,
2013-09-11 04:17:00,66.6,64.8,29.81,ESE,109,0.0,0.0,94,0.00,,,0.00,meteohub,2013-09-11 10:17:00,
2013-09-11 04:22:00,66.6,64.8,29.81,ESE,109,0.0,0.0,94,0.00,,,0.00,meteohub,2013-09-11 10:22:00,
2013-09-11 04:27:00,66.6,64.8,29.81,ESE,109,0.0,0.0,94,0.00,,,0.00,meteohub,2013-09-11 10:27:00,
2013-09-11 04:32:00,66.6,64.8,29.81,ESE,109,0.0,0.0,94,0.00,,,0.00,meteohub,2013-09-11 10:32:00,
2013-09-11 04:37:00,66.6,64.8,29.81,ESE,109,0.0,0.0,94,0.00,,,0.00,meteohub,2013-09-11 10:37:00,
2013-09-11 04:42:00,66.6,64.8,29.81,ESE,109,0.0,0.0,94,0.00,,,0.00,meteohub,2013-09-11 10:42:00,
2013-09-11 04:47:00,66.6,64.8,29.82,ESE,109,0.0,0.0,94,0.00,,,0.00,meteohub,2013-09-11 10:47:00,
2013-09-11 04:52:00,66.6,64.8,29.81,ESE,109,0.0,0.0,94,0.00,,,0.00,meteohub,2013-09-11 10:52:00,
2013-09-11 04:57:00,66.6,64.8,29.81,ESE,109,0.0,0.0,94,0.00,,,0.00,meteohub,2013-09-11 10:57:00,
2013-09-11 05:02:00,66.6,64.8,29.82,ESE,109,0.0,0.0,94,0.00,,,0.00,meteohub,2013-09-11 11:02:00,
2013-09-11 05:07:00,66.6,64.8,29.82,ESE,109,0.0,0.0,94,0.00,,,0.00,meteohub,2013-09-11 11:07:00,
2013-09-11 05:12:00,66.6,64.8,29.82,ESE,109,0.0,0.0,94,0.00,,,0.00,meteohub,2013-09-11 11:12:00,
2013-09-11 05:18:00,66.6,64.8,29.82,ESE,109,0.0,0.0,94,0.00,,,0.00,meteohub,2013-09-11 11:18:00,
2013-09-11 05:23:00,66.7,64.9,29.82,ESE,109,0.0,0.0,94,0.00,,,0.00,meteohub,2013-09-11 11:23:00,
2013-09-11 05:28:00,66.7,65.3,29.82,ESE,109,0.0,0.0,95,0.00,,,0.00,meteohub,2013-09-11 11:28:00,
2013-09-11 05:33:00,66.7,65.3,29.82,ESE,109,0.0,0.0,95,0.00,,,0.00,meteohub,2013-09-11 11:33:00,
2013-09-11 05:38:00,66.9,65.5,29.82,ESE,109,0.0,0.0,95,0.00,,,0.00,meteohub,2013-09-11 11:38:00,
2013-09-11 05:45:00,66.9,65.1,29.82,ESE,109,0.0,0.0,94,0.00,,,0.00,meteohub,2013-09-11 11:45:00,
2013-09-11 05:50:00,66.7,64.9,29.81,ESE,109,0.0,0.0,94,0.00,,,0.00,meteohub,2013-09-11 11:50:00,
2013-09-11 05:55:00,66.7,64.9,29.81,ESE,109,0.0,0.0,94,0.00,,,0.00,meteohub,2013-09-11 11:55:00,
2013-09-11 06:00:00,66.7,64.9,29.82,ESE,109,0.0,0.0,94,0.00,,,0.00,meteohub,2013-09-11 12:00:00,
2013-09-11 06:05:00,66.7,65.3,29.82,ESE,109,0.0,0.0,95,0.00,,,0.00,meteohub,2013-09-11 12:05:00,
2013-09-11 06:10:00,66.9,65.5,29.83,ESE,109,0.0,0.0,95,0.00,,,0.00,meteohub,2013-09-11 12:10:00,
2013-09-11 06:16:00,66.9,65.1,29.83,ESE,109,0.0,0.0,94,0.00,,,0.00,meteohub,2013-09-11 12:16:00,
2013-09-11 06:21:00,66.7,64.9,29.83,ESE,109,0.0,0.0,94,0.00,,,0.00,meteohub,2013-09-11 12:21:00,
2013-09-11 06:26:00,66.7,64.9,29.83,ESE,109,0.0,0.0,94,0.00,,,0.00,meteohub,2013-09-11 12:26:00,
2013-09-11 06:31:00,66.6,64.8,29.83,ESE,109,0.0,0.0,94,0.00,,,0.00,meteohub,2013-09-11 12:31:00,
2013-09-11 06:36:00,66.4,64.6,29.83,ESE,109,0.0,0.0,94,0.00,,,0.00,meteohub,2013-09-11 12:36:00,
2013-09-11 06:42:00,66.4,64.6,29.83,ESE,109,0.0,0.0,94,0.00,,,0.00,meteohub,2013-09-11 12:42:00,
2013-09-11 06:47:00,66.4,64.6,29.83,ESE,109,0.0,0.0,94,0.00,,,0.00,meteohub,2013-09-11 12:47:00,
2013-09-11 06:52:00,66.4,64.9,29.83,ESE,109,0.0,0.0,95,0.00,,,0.00,meteohub,2013-09-11 12:52:00,
2013-09-11 06:57:00,66.6,65.1,29.83,ESE,109,0.0,0.0,95,0.00,,,0.00,meteohub,2013-09-11 12:57:00,
2013-09-11 07:02:00,66.7,65.3,29.83,ESE,109,0.0,0.0,95,0.00,,,0.00,meteohub,2013-09-11 13:02:00,
2013-09-11 07:07:00,66.7,65.3,29.83,ESE,109,0.0,0.0,95,0.00,,,0.00,meteohub,2013-09-11 13:07:00,
2013-09-11 07:12:00,66.9,65.5,29.83,ESE,109,0.0,0.0,95,0.00,,,0.00,meteohub,2013-09-11 13:12:00,
2013-09-11 07:17:00,66.9,65.5,29.84,ESE,109,0.0,0.0,95,0.00,,,0.00,meteohub,2013-09-11 13:17:00,
2013-09-11 07:23:00,66.9,65.5,29.83,ESE,109,0.0,0.0,95,0.00,,,0.00,meteohub,2013-09-11 13:23:00,
2013-09-11 07:28:00,67.1,65.7,29.83,ESE,109,0.0,0.0,95,0.00,,,0.00,meteohub,2013-09-11 13:28:00,
2013-09-11 07:33:00,66.9,65.5,29.84,ESE,109,0.0,0.0,95,0.00,,,0.00,meteohub,2013-09-11 13:33:00,
2013-09-11 07:38:00,67.1,65.7,29.84,ESE,109,0.0,0.0,95,0.00,,,0.00,meteohub,2013-09-11 13:38:00,
2013-09-11 07:43:00,67.1,65.7,29.84,ESE,109,0.0,0.0,95,0.00,,,0.00,meteohub,2013-09-11 13:43:00,
2013-09-11 07:49:00,67.3,65.8,29.85,ESE,109,0.0,0.0,95,0.00,,,0.00,meteohub,2013-09-11 13:49:00,
2013-09-11 07:54:00,67.3,65.8,29.85,ESE,109,0.0,0.0,95,0.00,,,0.00,meteohub,2013-09-11 13:54:00,
2013-09-11 07:59:00,67.5,65.7,29.85,ESE,109,0.0,0.0,94,0.00,,,0.00,meteohub,2013-09-11 13:59:00,
2013-09-11 08:04:00,67.5,65.7,29.86,ESE,109,0.0,0.0,94,0.00,,,0.00,meteohub,2013-09-11 14:04:00,
2013-09-11 08:09:00,67.6,65.8,29.86,ESE,109,0.0,0.0,94,0.00,,,0.00,meteohub,2013-09-11 14:09:00,
2013-09-11 08:14:00,67.6,65.8,29.86,ESE,109,0.0,0.0,94,0.00,,,0.00,meteohub,2013-09-11 14:14:00,
2013-09-11 08:19:00,67.6,65.8,29.86,ESE,109,0.0,0.0,94,0.00,,,0.00,meteohub,2013-09-11 14:19:00,
2013-09-11 08:25:00,67.8,66.0,29.86,ESE,109,0.0,0.0,94,0.00,,,0.00,meteohub,2013-09-11 14:25:00,
2013-09-11 08:30:00,67.8,66.0,29.86,ESE,109,0.0,0.0,94,0.00,,,0.00,meteohub,2013-09-11 14:30:00,
2013-09-11 08:35:00,68.0,66.2,29.86,ESE,109,0.0,0.0,94,0.00,,,0.00,meteohub,2013-09-11 14:35:00,
2013-09-11 08:40:00,68.2,66.4,29.86,ESE,109,0.0,0.0,94,0.00,,,0.00,meteohub,2013-09-11 14:40:00,
2013-09-11 08:45:00,68.0,66.2,29.86,ESE,109,0.0,0.0,94,0.04,,,0.06,meteohub,2013-09-11 14:45:00,
2013-09-11 08:50:00,68.0,66.2,29.86,ESE,109,0.0,0.0,94,0.06,,,0.07,meteohub,2013-09-11 14:50:00,
2013-09-11 08:55:00,68.0,66.2,29.86,ESE,109,0.0,0.0,94,0.07,,,0.07,meteohub,2013-09-11 14:55:00,
2013-09-11 09:00:00,67.8,66.0,29.87,ESE,109,0.0,0.0,94,0.07,,,0.07,meteohub,2013-09-11 15:00:00,
2013-09-11 09:06:00,67.8,66.0,29.87,ESE,109,0.0,0.0,94,0.07,,,0.07,meteohub,2013-09-11 15:06:00,
2013-09-11 09:11:00,68.0,66.2,29.87,ESE,109,0.0,0.0,94,0.07,,,0.07,meteohub,2013-09-11 15:11:00,
2013-09-11 09:16:00,68.0,66.6,29.87,ESE,109,0.0,0.0,95,0.07,,,0.07,meteohub,2013-09-11 15:16:00,
2013-09-11 09:21:00,68.0,66.2,29.88,ESE,109,0.0,0.0,94,0.07,,,0.07,meteohub,2013-09-11 15:21:00,
2013-09-11 09:26:00,68.2,66.7,29.88,ESE,109,0.0,0.0,95,0.07,,,0.07,meteohub,2013-09-11 15:26:00,
2013-09-11 09:31:00,68.4,66.6,29.88,ESE,109,0.0,0.0,94,0.07,,,0.07,meteohub,2013-09-11 15:31:00,
2013-09-11 09:36:00,68.5,66.7,29.88,ESE,109,0.0,0.0,94,0.07,,,0.07,meteohub,2013-09-11 15:36:00,
2013-09-11 09:41:00,68.7,66.9,29.88,ESE,109,0.0,0.0,94,0.03,,,0.07,meteohub,2013-09-11 15:41:00,
2013-09-11 09:47:00,69.1,67.3,29.88,ESE,109,0.0,0.0,94,0.01,,,0.07,meteohub,2013-09-11 15:47:00,
2013-09-11 09:52:00,69.3,67.5,29.87,ESE,109,0.0,0.0,94,0.01,,,0.07,meteohub,2013-09-11 15:52:00,
2013-09-11 09:57:00,69.3,67.1,29.87,ESE,109,0.0,0.0,93,0.00,,,0.07,meteohub,2013-09-11 15:57:00,
2013-09-11 10:02:00,69.6,67.8,29.87,ESE,109,0.0,0.0,94,0.00,,,0.07,meteohub,2013-09-11 16:02:00,
2013-09-11 10:07:00,70.0,68.2,29.87,ESE,109,0.0,0.0,94,0.00,,,0.07,meteohub,2013-09-11 16:07:00,
2013-09-11 10:12:00,70.2,67.6,29.87,ESE,109,0.0,0.0,92,0.00,,,0.07,meteohub,2013-09-11 16:12:00,
2013-09-11 10:17:00,70.3,67.6,29.87,ESE,109,0.0,0.0,91,0.00,,,0.07,meteohub,2013-09-11 16:17:00,
2013-09-11 10:22:00,70.9,68.4,29.87,ESE,109,0.0,0.0,92,0.00,,,0.07,meteohub,2013-09-11 16:22:00,
2013-09-11 10:27:00,71.1,67.6,29.87,ESE,109,0.0,0.0,89,0.00,,,0.07,meteohub,2013-09-11 16:27:00,
2013-09-11 10:32:00,71.6,68.2,29.87,ESE,109,0.0,0.0,89,0.00,,,0.07,meteohub,2013-09-11 16:32:00,
2013-09-11 10:37:00,72.1,67.6,29.87,ESE,109,0.0,0.0,86,0.00,,,0.07,meteohub,2013-09-11 16:37:00,
2013-09-11 10:42:00,72.7,68.2,29.87,ESE,109,0.0,0.0,86,0.00,,,0.07,meteohub,2013-09-11 16:42:00,
2013-09-11 10:47:00,73.2,67.8,29.87,ESE,109,0.0,0.0,83,0.00,,,0.07,meteohub,2013-09-11 16:47:00,
2013-09-11 10:53:00,73.6,67.5,29.87,ESE,109,0.0,0.0,81,0.00,,,0.07,meteohub,2013-09-11 16:53:00,
2013-09-11 10:58:00,74.1,67.6,29.87,ESE,109,0.0,0.0,80,0.00,,,0.07,meteohub,2013-09-11 16:58:00,
2013-09-11 11:03:00,74.7,67.6,29.87,ESE,109,0.0,0.0,79,0.00,,,0.07,meteohub,2013-09-11 17:03:00,
2013-09-11 11:08:00,75.2,68.2,29.86,ESE,109,0.0,0.0,79,0.00,,,0.07,meteohub,2013-09-11 17:08:00,
2013-09-11 11:13:00,75.7,67.6,29.86,ESE,111,0.0,0.0,76,0.00,,,0.07,meteohub,2013-09-11 17:13:00,
2013-09-11 11:18:00,76.3,67.5,29.86,ESE,112,0.0,0.0,74,0.00,,,0.07,meteohub,2013-09-11 17:18:00,
2013-09-11 11:23:00,76.8,67.8,29.86,ESE,121,0.0,0.0,74,0.00,,,0.07,meteohub,2013-09-11 17:23:00,
2013-09-11 11:29:00,77.2,67.8,29.86,SW,229,0.0,0.0,73,0.00,,,0.07,meteohub,2013-09-11 17:29:00,
2013-09-11 11:34:00,77.5,67.8,29.86,SW,229,0.0,0.0,72,0.00,,,0.07,meteohub,2013-09-11 17:34:00,
2013-09-11 11:39:00,77.7,66.7,29.86,SE,134,0.0,0.0,69,0.00,,,0.07,meteohub,2013-09-11 17:39:00,
2013-09-11 11:44:00,77.7,66.7,29.86,WSW,246,0.0,0.0,69,0.00,,,0.07,meteohub,2013-09-11 17:44:00,
2013-09-11 11:49:00,77.7,67.1,29.86,WSW,246,0.0,0.0,70,0.00,,,0.07,meteohub,2013-09-11 17:49:00,
2013-09-11 11:54:00,78.3,66.7,29.85,WSW,246,0.0,0.0,68,0.00,,,0.07,meteohub,2013-09-11 17:54:00,
2013-09-11 11:59:00,78.6,67.1,29.85,WSW,246,0.0,0.0,68,0.00,,,0.07,meteohub,2013-09-11 17:59:00,
2013-09-11 12:04:00,79.0,67.1,29.85,WSW,246,0.0,0.0,67,0.00,,,0.07,meteohub,2013-09-11 18:04:00,
2013-09-11 12:10:00,79.0,67.5,29.85,WSW,246,0.0,0.0,68,0.00,,,0.07,meteohub,2013-09-11 18:10:00,
2013-09-11 12:15:00,79.0,66.6,29.84,WSW,246,0.0,0.0,66,0.00,,,0.07,meteohub,2013-09-11 18:15:00,
2013-09-11 12:20:00,78.6,66.7,29.84,WSW,246,0.0,0.0,67,0.00,,,0.07,meteohub,2013-09-11 18:20:00,
2013-09-11 12:25:00,78.1,66.2,29.84,WSW,246,0.0,0.0,67,0.00,,,0.07,meteohub,2013-09-11 18:25:00,
2013-09-11 12:30:00,77.5,66.2,29.85,WSW,246,0.0,0.0,68,0.00,,,0.07,meteohub,2013-09-11 18:30:00,
2013-09-11 12:35:00,77.4,66.4,29.84,WSW,246,0.0,0.0,69,0.00,,,0.07,meteohub,2013-09-11 18:35:00,
2013-09-11 12:40:00,77.2,66.2,29.84,SW,223,0.0,0.0,69,0.00,,,0.07,meteohub,2013-09-11 18:40:00,
2013-09-11 12:46:00,77.4,66.4,29.84,ESE,122,0.0,0.0,69,0.00,,,0.07,meteohub,2013-09-11 18:46:00,
2013-09-11 12:51:00,77.4,66.7,29.84,East,88,0.0,0.0,70,0.00,,,0.07,meteohub,2013-09-11 18:51:00,
2013-09-11 12:56:00,75.7,67.3,29.84,East,100,0.0,0.0,75,0.00,,,0.07,meteohub,2013-09-11 18:56:00,
2013-09-11 13:01:00,74.5,67.5,29.84,East,95,0.0,0.0,79,0.01,,,0.08,meteohub,2013-09-11 19:01:00,
2013-09-11 13:06:00,73.8,67.3,29.83,East,93,0.0,0.0,80,0.01,,,0.08,meteohub,2013-09-11 19:06:00,
2013-09-11 13:11:00,73.6,67.5,29.83,East,93,0.0,0.0,81,0.01,,,0.08,meteohub,2013-09-11 19:11:00,
2013-09-11 13:16:00,73.6,67.5,29.83,East,93,0.0,0.0,81,0.01,,,0.08,meteohub,2013-09-11 19:16:00,
2013-09-11 13:21:00,73.9,67.8,29.83,East,93,0.0,0.0,81,0.01,,,0.08,meteohub,2013-09-11 19:21:00,
2013-09-11 13:27:00,74.1,68.0,29.82,East,93,0.0,0.0,81,0.01,,,0.08,meteohub,2013-09-11 19:27:00,
2013-09-11 13:32:00,74.8,68.5,29.82,East,93,0.0,0.0,81,0.01,,,0.08,meteohub,2013-09-11 19:32:00,
2013-09-11 13:37:00,76.1,69.4,29.81,East,93,0.0,0.0,80,0.01,,,0.08,meteohub,2013-09-11 19:37:00,
2013-09-11 13:42:00,77.5,67.5,29.81,East,94,0.0,0.0,71,0.01,,,0.08,meteohub,2013-09-11 19:42:00,
2013-09-11 13:47:00,78.4,68.2,29.81,East,95,0.0,0.0,71,0.01,,,0.08,meteohub,2013-09-11 19:47:00,
2013-09-11 13:52:00,79.0,66.6,29.81,East,95,0.0,0.0,66,0.01,,,0.08,meteohub,2013-09-11 19:52:00,
2013-09-11 13:57:00,79.7,67.8,29.81,East,95,0.0,0.0,67,0.01,,,0.08,meteohub,2013-09-11 19:57:00,
2013-09-11 14:02:00,80.2,66.9,29.81,East,95,0.0,0.0,64,0.00,,,0.08,meteohub,2013-09-11 20:02:00,
2013-09-11 14:07:00,80.4,67.1,29.81,East,95,0.0,0.0,64,0.00,,,0.08,meteohub,2013-09-11 20:07:00,
2013-09-11 14:12:00,80.4,66.7,29.81,East,98,0.0,0.0,63,0.00,,,0.08,meteohub,2013-09-11 20:12:00,
2013-09-11 14:17:00,80.2,66.6,29.81,East,100,0.0,0.0,63,0.00,,,0.08,meteohub,2013-09-11 20:17:00,
2013-09-11 14:22:00,79.9,65.7,29.81,South,171,0.0,0.0,62,0.00,,,0.08,meteohub,2013-09-11 20:22:00,
2013-09-11 14:27:00,79.9,65.7,29.80,East,80,0.0,0.0,62,0.00,,,0.08,meteohub,2013-09-11 20:27:00,
2013-09-11 14:33:00,80.8,66.6,29.80,ESE,122,0.0,0.0,62,0.00,,,0.08,meteohub,2013-09-11 20:33:00,
2013-09-11 14:38:00,81.3,66.0,29.80,ESE,108,0.0,0.0,60,0.00,,,0.08,meteohub,2013-09-11 20:38:00,
2013-09-11 14:43:00,81.3,66.6,29.80,ESE,113,0.0,0.0,61,0.00,,,0.08,meteohub,2013-09-11 20:43:00,
2013-09-11 14:48:00,81.9,66.6,29.80,ESE,113,0.0,0.0,60,0.00,,,0.08,meteohub,2013-09-11 20:48:00,
2013-09-11 14:53:00,81.7,66.4,29.79,West,277,0.0,0.0,60,0.00,,,0.08,meteohub,2013-09-11 20:53:00,
2013-09-11 14:58:00,81.5,66.2,29.78,West,277,0.0,0.0,60,0.00,,,0.08,meteohub,2013-09-11 20:58:00,
2013-09-11 15:04:00,81.3,66.0,29.78,West,277,0.0,0.0,60,0.00,,,0.08,meteohub,2013-09-11 21:04:00,
2013-09-11 15:09:00,81.1,66.0,29.79,West,277,0.0,0.0,60,0.00,,,0.08,meteohub,2013-09-11 21:09:00,
2013-09-11 15:14:00,81.3,67.1,29.78,West,277,0.0,0.0,62,0.00,,,0.08,meteohub,2013-09-11 21:14:00,
2013-09-11 15:19:00,81.3,66.6,29.79,West,275,0.0,0.0,61,0.00,,,0.08,meteohub,2013-09-11 21:19:00,
2013-09-11 15:24:00,81.0,65.8,29.78,West,274,0.0,0.0,60,0.00,,,0.08,meteohub,2013-09-11 21:24:00,
2013-09-11 15:29:00,80.4,65.3,29.78,SSW,212,0.0,0.0,60,0.00,,,0.08,meteohub,2013-09-11 21:29:00,
2013-09-11 15:34:00,80.1,65.5,29.78,East,90,0.0,0.0,61,0.00,,,0.08,meteohub,2013-09-11 21:34:00,
2013-09-11 15:39:00,79.5,66.2,29.78,East,84,0.0,0.0,64,0.00,,,0.08,meteohub,2013-09-11 21:39:00,
2013-09-11 15:45:00,78.4,66.6,29.79,ESE,110,0.0,0.0,67,0.00,,,0.08,meteohub,2013-09-11 21:45:00,
2013-09-11 15:50:00,77.0,66.4,29.79,SSE,153,0.0,0.0,70,0.00,,,0.08,meteohub,2013-09-11 21:50:00,
2013-09-11 15:55:00,75.9,67.1,29.80,SSW,194,0.0,0.0,74,0.00,,,0.08,meteohub,2013-09-11 21:55:00,
2013-09-11 16:00:00,74.8,67.8,29.80,SSW,201,0.0,0.0,79,0.00,,,0.09,meteohub,2013-09-11 22:00:00,
2013-09-11 16:05:00,73.4,67.3,29.80,South,184,0.0,0.0,81,0.03,,,0.13,meteohub,2013-09-11 22:05:00,
2013-09-11 16:10:00,72.1,67.1,29.80,SW,217,0.0,0.0,84,0.05,,,0.15,meteohub,2013-09-11 22:10:00,
2013-09-11 16:15:00,71.6,67.1,29.80,SSW,209,0.0,0.0,86,0.07,,,0.15,meteohub,2013-09-11 22:15:00,
2013-09-11 16:20:00,71.2,67.1,29.80,ESE,111,0.0,0.0,87,0.07,,,0.15,meteohub,2013-09-11 22:20:00,
2013-09-11 16:26:00,71.2,67.5,29.80,ESE,103,0.0,0.0,88,0.07,,,0.15,meteohub,2013-09-11 22:26:00,
2013-09-11 16:31:00,71.2,67.8,29.80,ESE,116,0.0,0.0,89,0.07,,,0.15,meteohub,2013-09-11 22:31:00,
2013-09-11 16:36:00,71.1,67.3,29.81,ESE,121,0.0,0.0,88,0.07,,,0.15,meteohub,2013-09-11 22:36:00,
2013-09-11 16:41:00,70.9,67.1,29.81,ESE,121,0.0,0.0,88,0.07,,,0.15,meteohub,2013-09-11 22:41:00,
2013-09-11 16:46:00,70.5,66.7,29.81,ESE,121,0.0,0.0,88,0.07,,,0.15,meteohub,2013-09-11 22:46:00,
2013-09-11 16:51:00,70.5,66.7,29.80,ESE,121,0.0,0.0,88,0.07,,,0.15,meteohub,2013-09-11 22:51:00,
2013-09-11 16:56:00,70.5,67.1,29.80,ESE,121,0.0,0.0,89,0.06,,,0.15,meteohub,2013-09-11 22:56:00,
2013-09-11 17:02:00,70.5,67.1,29.79,ESE,121,0.0,0.0,89,0.04,,,0.15,meteohub,2013-09-11 23:02:00,
2013-09-11 17:07:00,70.9,67.8,29.79,ESE,121,0.0,0.0,90,0.01,,,0.15,meteohub,2013-09-11 23:07:00,
2013-09-11 17:12:00,71.1,68.0,29.79,ESE,121,0.0,0.0,90,0.00,,,0.15,meteohub,2013-09-11 23:12:00,
2013-09-11 17:17:00,71.1,67.3,29.79,ESE,121,0.0,0.0,88,0.00,,,0.15,meteohub,2013-09-11 23:17:00,
2013-09-11 17:22:00,71.2,67.1,29.79,ESE,121,0.0,0.0,87,0.00,,,0.15,meteohub,2013-09-11 23:22:00,
2013-09-11 17:27:00,71.2,67.1,29.78,ESE,121,0.0,0.0,87,0.00,,,0.15,meteohub,2013-09-11 23:27:00,
2013-09-11 17:32:00,71.4,67.3,29.79,ESE,121,0.0,0.0,87,0.00,,,0.15,meteohub,2013-09-11 23:32:00,
2013-09-11 17:37:00,71.4,67.1,29.78,ESE,121,0.0,0.0,86,0.00,,,0.15,meteohub,2013-09-11 23:37:00,
2013-09-11 17:42:00,71.4,67.1,29.79,ESE,121,0.0,0.0,86,0.00,,,0.15,meteohub,2013-09-11 23:42:00,
2013-09-11 17:47:00,71.4,67.1,29.79,ESE,121,0.0,0.0,86,0.00,,,0.15,meteohub,2013-09-11 23:47:00,
2013-09-11 17:52:00,71.6,67.1,29.79,ESE,121,0.0,0.0,86,0.00,,,0.15,meteohub,2013-09-11 23:52:00,
2013-09-11 17:57:00,71.8,67.3,29.79,ESE,121,0.0,0.0,86,0.00,,,0.15,meteohub,2013-09-11 23:57:00,
2013-09-11 18:02:00,71.8,67.3,29.79,ESE,121,0.0,0.0,86,0.00,,,0.15,meteohub,2013-09-12 00:02:00,
2013-09-11 18:07:00,71.8,67.3,29.79,ESE,121,0.0,0.0,86,0.00,,,0.15,meteohub,2013-09-12 00:07:00,
2013-09-11 18:12:00,72.0,67.5,29.79,ESE,121,0.0,0.0,86,0.00,,,0.15,meteohub,2013-09-12 00:12:00,
2013-09-11 18:17:00,72.0,67.5,29.79,ESE,121,0.0,0.0,86,0.00,,,0.15,meteohub,2013-09-12 00:17:00,
2013-09-11 18:22:00,72.1,67.5,29.79,ESE,121,0.0,0.0,85,0.00,,,0.15,meteohub,2013-09-12 00:22:00,
2013-09-11 18:27:00,72.3,67.3,29.79,ESE,121,0.0,0.0,84,0.00,,,0.15,meteohub,2013-09-12 00:27:00,
2013-09-11 18:32:00,72.3,66.9,29.79,ESE,121,0.0,0.0,83,0.00,,,0.15,meteohub,2013-09-12 00:32:00,
2013-09-11 18:37:00,72.3,66.9,29.79,ESE,121,0.0,0.0,83,0.00,,,0.15,meteohub,2013-09-12 00:37:00,
2013-09-11 18:42:00,72.3,66.6,29.79,ESE,121,0.0,0.0,82,0.00,,,0.15,meteohub,2013-09-12 00:42:00,
2013-09-11 18:47:00,72.3,66.6,29.79,ESE,121,0.0,0.0,82,0.00,,,0.15,meteohub,2013-09-12 00:47:00,
2013-09-11 18:52:00,72.3,66.2,29.79,ESE,121,0.0,0.0,81,0.00,,,0.15,meteohub,2013-09-12 00:52:00,
2013-09-11 18:57:00,72.3,66.2,29.79,ESE,121,0.0,0.0,81,0.00,,,0.15,meteohub,2013-09-12 00:57:00,
2013-09-11 19:02:00,72.3,65.8,29.79,ESE,121,0.0,0.0,80,0.00,,,0.15,meteohub,2013-09-12 01:02:00,
2013-09-11 19:07:00,72.1,65.7,29.79,ESE,121,0.0,0.0,80,0.00,,,0.15,meteohub,2013-09-12 01:07:00,
2013-09-11 19:12:00,72.3,65.8,29.79,ESE,121,0.0,0.0,80,0.00,,,0.15,meteohub,2013-09-12 01:12:00,
2013-09-11 19:17:00,72.3,65.8,29.79,ESE,121,0.0,0.0,80,0.00,,,0.15,meteohub,2013-09-12 01:17:00,
2013-09-11 19:22:00,72.1,65.7,29.79,ESE,121,0.0,0.0,80,0.00,,,0.15,meteohub,2013-09-12 01:22:00,
2013-09-11 19:27:00,72.0,65.8,29.79,ESE,121,0.0,0.0,81,0.00,,,0.15,meteohub,2013-09-12 01:27:00,
2013-09-11 19:32:00,72.0,65.8,29.79,ESE,121,0.0,0.0,81,0.00,,,0.15,meteohub,2013-09-12 01:32:00,
2013-09-11 19:37:00,71.8,66.0,29.79,ESE,121,0.0,0.0,82,0.00,,,0.15,meteohub,2013-09-12 01:37:00,
2013-09-11 19:42:00,71.8,66.4,29.80,ESE,121,0.0,0.0,83,0.00,,,0.15,meteohub,2013-09-12 01:42:00,
2013-09-11 19:47:00,71.8,66.4,29.80,ESE,121,0.0,0.0,83,0.00,,,0.15,meteohub,2013-09-12 01:47:00,
2013-09-11 19:53:00,71.8,66.7,29.80,ESE,121,0.0,0.0,84,0.00,,,0.15,meteohub,2013-09-12 01:53:00,
2013-09-11 19:58:00,71.6,66.6,29.80,ESE,121,0.0,0.0,84,0.00,,,0.15,meteohub,2013-09-12 01:58:00,
2013-09-11 20:03:00,71.4,66.7,29.80,ESE,121,0.0,0.0,85,0.00,,,0.15,meteohub,2013-09-12 02:03:00,
2013-09-11 20:08:00,71.4,67.3,29.80,ESE,121,0.0,0.0,87,0.00,,,0.15,meteohub,2013-09-12 02:08:00,
2013-09-11 20:13:00,71.4,67.6,29.80,ESE,121,0.0,0.0,88,0.00,,,0.15,meteohub,2013-09-12 02:13:00,
2013-09-11 20:18:00,71.4,67.6,29.81,ESE,121,0.0,0.0,88,0.00,,,0.15,meteohub,2013-09-12 02:18:00,
2013-09-11 20:24:00,71.2,67.8,29.81,ESE,121,0.0,0.0,89,0.00,,,0.15,meteohub,2013-09-12 02:24:00,
2013-09-11 20:29:00,71.2,68.2,29.81,ESE,121,0.0,0.0,90,0.00,,,0.15,meteohub,2013-09-12 02:29:00,
2013-09-11 20:34:00,71.2,68.2,29.80,ESE,121,0.0,0.0,90,0.00,,,0.15,meteohub,2013-09-12 02:34:00,
2013-09-11 20:39:00,71.2,68.5,29.80,ESE,121,0.0,0.0,91,0.00,,,0.15,meteohub,2013-09-12 02:39:00,
2013-09-11 20:44:00,71.2,68.5,29.80,ESE,121,0.0,0.0,91,0.00,,,0.15,meteohub,2013-09-12 02:44:00,
2013-09-11 20:49:00,71.2,68.5,29.80,ESE,121,0.0,0.0,91,0.00,,,0.15,meteohub,2013-09-12 02:49:00,
2013-09-11 20:54:00,71.2,68.5,29.80,ESE,121,0.0,0.0,91,0.00,,,0.15,meteohub,2013-09-12 02:54:00,
2013-09-11 21:00:00,71.1,68.4,29.80,ESE,121,0.0,0.0,91,0.00,,,0.15,meteohub,2013-09-12 03:00:00,
2013-09-11 21:05:00,70.9,68.2,29.80,ESE,121,0.0,0.0,91,0.00,,,0.15,meteohub,2013-09-12 03:05:00,
2013-09-11 21:10:00,70.9,68.2,29.80,ESE,121,0.0,0.0,91,0.00,,,0.15,meteohub,2013-09-12 03:10:00,
2013-09-11 21:15:00,70.7,67.6,29.80,ESE,121,0.0,0.0,90,0.00,,,0.15,meteohub,2013-09-12 03:15:00,
2013-09-11 21:20:00,70.5,67.1,29.81,ESE,123,0.0,0.0,89,0.00,,,0.15,meteohub,2013-09-12 03:20:00,
2013-09-11 21:25:00,70.7,66.9,29.81,SSE,147,0.0,0.0,88,0.00,,,0.15,meteohub,2013-09-12 03:25:00,
2013-09-11 21:30:00,70.7,66.4,29.81,SSE,147,0.0,0.0,86,0.00,,,0.15,meteohub,2013-09-12 03:30:00,
2013-09-11 21:35:00,71.2,65.8,29.81,East,89,0.0,0.0,83,0.00,,,0.15,meteohub,2013-09-12 03:35:00,
2013-09-11 21:41:00,71.8,65.3,29.81,East,97,0.0,0.0,80,0.00,,,0.15,meteohub,2013-09-12 03:41:00,
2013-09-11 21:46:00,72.1,65.7,29.82,ESE,102,0.0,0.0,80,0.00,,,0.15,meteohub,2013-09-12 03:46:00,
2013-09-11 21:51:00,72.1,66.0,29.81,South,175,0.0,0.0,81,0.00,,,0.15,meteohub,2013-09-12 03:51:00,
2013-09-11 21:56:00,72.0,65.8,29.81,South,175,0.0,0.0,81,0.00,,,0.15,meteohub,2013-09-12 03:56:00,
2013-09-11 22:01:00,71.8,65.7,29.81,ESE,119,0.0,0.0,81,0.00,,,0.15,meteohub,2013-09-12 04:01:00,
2013-09-11 22:02:00,71.6,65.5,29.81,ESE,119,0.0,0.0,81,0.00,,,0.15,meteohub,2013-09-12 04:02:00,
2013-09-11 22:04:00,71.4,65.3,29.81,ESE,119,0.0,0.0,81,0.00,,,0.15,meteohub,2013-09-12 04:04:00,
2013-09-11 22:09:00,71.2,65.5,29.82,ESE,119,0.0,0.0,82,0.00,,,0.15,meteohub,2013-09-12 04:09:00,
2013-09-11 22:14:00,71.1,65.3,29.81,ESE,119,0.0,0.0,82,0.00,,,0.15,meteohub,2013-09-12 04:14:00,
2013-09-11 22:16:00,71.1,65.3,29.81,ESE,119,0.0,0.0,82,0.00,,,0.15,meteohub,2013-09-12 04:16:00,
2013-09-11 22:20:00,71.1,64.6,29.82,East,86,0.0,0.0,80,0.00,,,0.15,meteohub,2013-09-12 04:20:00,
2013-09-11 22:26:00,71.1,63.9,29.82,East,86,0.0,0.0,78,0.00,,,0.15,meteohub,2013-09-12 04:26:00,
2013-09-11 22:31:00,71.6,63.7,29.82,East,92,0.0,0.0,76,0.00,,,0.15,meteohub,2013-09-12 04:31:00,
2013-09-11 22:36:00,72.0,64.0,29.81,East,84,0.0,0.0,76,0.00,,,0.15,meteohub,2013-09-12 04:36:00,
2013-09-11 22:41:00,72.3,63.5,29.81,East,90,0.0,0.0,74,0.00,,,0.15,meteohub,2013-09-12 04:41:00,
2013-09-11 22:46:00,72.7,64.2,29.82,ESE,123,0.0,0.0,75,0.00,,,0.15,meteohub,2013-09-12 04:46:00,
2013-09-11 22:51:00,72.7,64.2,29.82,East,92,0.0,0.0,75,0.00,,,0.15,meteohub,2013-09-12 04:51:00,
2013-09-11 22:56:00,72.7,64.8,29.81,ESE,113,0.0,0.0,76,0.00,,,0.15,meteohub,2013-09-12 04:56:00,
2013-09-11 23:01:00,72.5,63.7,29.81,East,84,0.0,0.0,74,0.00,,,0.15,meteohub,2013-09-12 05:01:00,
2013-09-11 23:07:00,72.9,63.7,29.81,East,90,0.0,0.0,73,0.00,,,0.15,meteohub,2013-09-12 05:07:00,
2013-09-11 23:12:00,73.2,63.7,29.81,East,90,0.0,0.0,72,0.00,,,0.15,meteohub,2013-09-12 05:12:00,
2013-09-11 23:17:00,73.2,63.7,29.81,ESE,105,0.0,0.0,72,0.00,,,0.15,meteohub,2013-09-12 05:17:00,
2013-09-11 23:22:00,73.0,64.2,29.81,ESE,104,0.0,0.0,74,0.00,,,0.15,meteohub,2013-09-12 05:22:00,
2013-09-11 23:27:00,72.7,64.2,29.81,ESE,104,0.0,0.0,75,0.00,,,0.15,meteohub,2013-09-12 05:27:00,
2013-09-11 23:32:00,72.3,64.8,29.81,ESE,104,0.0,0.0,77,0.00,,,0.15,meteohub,2013-09-12 05:32:00,
2013-09-11 23:37:00,72.0,64.8,29.81,ESE,104,0.0,0.0,78,0.00,,,0.15,meteohub,2013-09-12 05:37:00,
2013-09-11 23:42:00,71.4,64.9,29.81,ESE,104,0.0,0.0,80,0.00,,,0.15,meteohub,2013-09-12 05:42:00,
2013-09-11 23:48:00,71.1,64.9,29.81,ESE,104,0.0,0.0,81,0.00,,,0.15,meteohub,2013-09-12 05:48:00,
2013-09-11 23:53:00,70.7,65.3,29.81,ESE,104,0.0,0.0,83,0.00,,,0.15,meteohub,2013-09-12 05:53:00,
2013-09-11 23:58:00,70.5,65.5,29.81,ESE,104,0.0,0.0,84,0.00,,,0.15,meteohub,2013-09-12 05:58:00,